sensor_id;sensor_type;location;lat;lon;timestamp;pressure;altitude;pressure_sealevel;temperature;humidity
11710;BME280;5911;51.036;6.972;2022-10-04T00:01:05;101559.56;;;12.93;100.00
11710;BME280;5911;51.036;6.972;2022-10-04T00:03:40;101558.97;;;12.90;100.00
11710;BME280;5911;51.036;6.972;2022-10-04T00:06:16;101546.34;;;12.93;100.00
11710;BME280;5911;51.036;6.972;2022-10-04T00:08:47;101563.91;;;12.94;100.00
11710;BME280;5911;51.036;6.972;2022-10-04T00:11:21;101559.91;;;12.89;100.00
11710;BME280;5911;51.036;6.972;2022-10-04T00:13:53;101546.16;;;12.84;100.00
11710;BME280;5911;51.036;6.972;2022-10-04T00:16:27;101557.59;;;12.84;100.00
11710;BME280;5911;51.036;6.972;2022-10-04T00:22:13;101559.69;;;12.92;100.00
11710;BME280;5911;51.036;6.972;2022-10-04T00:31:18;101547.41;;;12.91;100.00
11710;BME280;5911;51.036;6.972;2022-10-04T00:33:50;101542.09;;;12.91;100.00
11710;BME280;5911;51.036;6.972;2022-10-04T00:36:38;101542.84;;;12.93;100.00
11710;BME280;5911;51.036;6.972;2022-10-04T00:39:16;101537.66;;;12.91;100.00
11710;BME280;5911;51.036;6.972;2022-10-04T00:41:59;101535.75;;;12.93;100.00
11710;BME280;5911;51.036;6.972;2022-10-04T00:44:35;101532.34;;;12.91;100.00
11710;BME280;5911;51.036;6.972;2022-10-04T00:47:13;101526.00;;;12.94;100.00
11710;BME280;5911;51.036;6.972;2022-10-04T00:49:48;101534.03;;;12.92;100.00
11710;BME280;5911;51.036;6.972;2022-10-04T00:52:21;101524.75;;;12.87;100.00
11710;BME280;5911;51.036;6.972;2022-10-04T00:54:55;101522.84;;;12.89;100.00
11710;BME280;5911;51.036;6.972;2022-10-04T00:57:27;101513.22;;;12.88;100.00
11710;BME280;5911;51.036;6.972;2022-10-04T00:59:59;101513.44;;;12.85;100.00
11710;BME280;5911;51.036;6.972;2022-10-04T01:02:32;101506.22;;;12.87;100.00
11710;BME280;5911;51.036;6.972;2022-10-04T01:05:06;101513.22;;;12.88;100.00
11710;BME280;5911;51.036;6.972;2022-10-04T01:07:39;101515.84;;;12.88;100.00
11710;BME280;5911;51.036;6.972;2022-10-04T01:10:12;101508.63;;;12.90;100.00
11710;BME280;5911;51.036;6.972;2022-10-04T01:12:48;101486.22;;;12.72;100.00
11710;BME280;5911;51.036;6.972;2022-10-04T01:15:24;101514.78;;;12.90;100.00
11710;BME280;5911;51.036;6.972;2022-10-04T01:18:09;101512.25;;;12.89;100.00
11710;BME280;5911;51.036;6.972;2022-10-04T01:20:40;101518.50;;;12.88;100.00
11710;BME280;5911;51.036;6.972;2022-10-04T01:23:33;101514.16;;;12.87;100.00
11710;BME280;5911;51.036;6.972;2022-10-04T01:26:03;101513.44;;;12.85;100.00
11710;BME280;5911;51.036;6.972;2022-10-04T01:28:32;101515.25;;;12.84;100.00
11710;BME280;5911;51.036;6.972;2022-10-04T01:31:00;101532.22;;;12.82;100.00
11710;BME280;5911;51.036;6.972;2022-10-04T01:33:28;101523.78;;;12.77;100.00
11710;BME280;5911;51.036;6.972;2022-10-04T01:35:56;101522.09;;;12.76;100.00
11710;BME280;5911;51.036;6.972;2022-10-04T01:38:24;101508.44;;;12.58;100.00
11710;BME280;5911;51.036;6.972;2022-10-04T01:40:56;101510.28;;;12.68;100.00
11710;BME280;5911;51.036;6.972;2022-10-04T01:43:31;101512.69;;;12.72;100.00
11710;BME280;5911;51.036;6.972;2022-10-04T01:46:04;101508.84;;;12.76;100.00
11710;BME280;5911;51.036;6.972;2022-10-04T01:48:36;101507.91;;;12.77;100.00
11710;BME280;5911;51.036;6.972;2022-10-04T01:51:07;101498.03;;;12.67;100.00
11710;BME280;5911;51.036;6.972;2022-10-04T01:53:41;101493.19;;;12.73;100.00
11710;BME280;5911;51.036;6.972;2022-10-04T01:56:16;101499.22;;;12.75;100.00
11710;BME280;5911;51.036;6.972;2022-10-04T01:58:48;101498.63;;;12.71;100.00
11710;BME280;5911;51.036;6.972;2022-10-04T02:01:24;101492.97;;;12.64;100.00
11710;BME280;5911;51.036;6.972;2022-10-04T02:03:58;101475.63;;;12.60;100.00
11710;BME280;5911;51.036;6.972;2022-10-04T02:06:28;101484.06;;;12.65;100.00
11710;BME280;5911;51.036;6.972;2022-10-04T02:08:57;101503.53;;;12.64;100.00
11710;BME280;5911;51.036;6.972;2022-10-04T02:11:27;101503.31;;;12.67;100.00
11710;BME280;5911;51.036;6.972;2022-10-04T02:13:56;101494.38;;;12.68;100.00
11710;BME280;5911;51.036;6.972;2022-10-04T02:16:27;101490.91;;;12.68;100.00
11710;BME280;5911;51.036;6.972;2022-10-04T02:18:55;101489.34;;;12.65;100.00
11710;BME280;5911;51.036;6.972;2022-10-04T02:21:23;101491.50;;;12.60;100.00
11710;BME280;5911;51.036;6.972;2022-10-04T02:23:52;101486.19;;;12.60;100.00
11710;BME280;5911;51.036;6.972;2022-10-04T02:26:20;101474.88;;;12.58;100.00
11710;BME280;5911;51.036;6.972;2022-10-04T02:28:50;101472.47;;;12.55;100.00
11710;BME280;5911;51.036;6.972;2022-10-04T02:31:20;101474.16;;;12.56;100.00
11710;BME280;5911;51.036;6.972;2022-10-04T02:34:06;101464.53;;;12.55;100.00
11710;BME280;5911;51.036;6.972;2022-10-04T02:36:35;101473.94;;;12.59;100.00
11710;BME280;5911;51.036;6.972;2022-10-04T02:39:07;101459.13;;;12.57;100.00
11710;BME280;5911;51.036;6.972;2022-10-04T02:41:40;101441.44;;;12.46;100.00
11710;BME280;5911;51.036;6.972;2022-10-04T02:44:14;101456.00;;;12.52;100.00
11710;BME280;5911;51.036;6.972;2022-10-04T02:46:49;101451.56;;;12.52;100.00
11710;BME280;5911;51.036;6.972;2022-10-04T02:49:25;101439.34;;;12.39;100.00
11710;BME280;5911;51.036;6.972;2022-10-04T02:51:59;101448.91;;;12.52;100.00
11710;BME280;5911;51.036;6.972;2022-10-04T02:54:30;101446.38;;;12.51;100.00
11710;BME280;5911;51.036;6.972;2022-10-04T02:57:00;101438.56;;;12.49;100.00
11710;BME280;5911;51.036;6.972;2022-10-04T02:59:30;101431.19;;;12.53;100.00
11710;BME280;5911;51.036;6.972;2022-10-04T03:02:01;101430.38;;;12.52;100.00
11710;BME280;5911;51.036;6.972;2022-10-04T03:04:31;101439.88;;;12.55;100.00
11710;BME280;5911;51.036;6.972;2022-10-04T03:07:01;101432.53;;;12.58;100.00
11710;BME280;5911;51.036;6.972;2022-10-04T03:09:31;101423.63;;;12.59;100.00
11710;BME280;5911;51.036;6.972;2022-10-04T03:12:02;101428.19;;;12.57;100.00
11710;BME280;5911;51.036;6.972;2022-10-04T03:14:32;101414.25;;;12.55;100.00
11710;BME280;5911;51.036;6.972;2022-10-04T03:17:01;101417.16;;;12.52;100.00
11710;BME280;5911;51.036;6.972;2022-10-04T03:19:31;101415.47;;;12.51;100.00
11710;BME280;5911;51.036;6.972;2022-10-04T03:22:05;101424.25;;;12.52;100.00
11710;BME280;5911;51.036;6.972;2022-10-04T03:24:37;101407.53;;;12.51;100.00
11710;BME280;5911;51.036;6.972;2022-10-04T03:27:07;101392.56;;;12.39;100.00
11710;BME280;5911;51.036;6.972;2022-10-04T03:29:39;101409.44;;;12.49;100.00
11710;BME280;5911;51.036;6.972;2022-10-04T03:32:12;101404.16;;;12.49;100.00
11710;BME280;5911;51.036;6.972;2022-10-04T03:34:46;101411.97;;;12.51;100.00
11710;BME280;5911;51.036;6.972;2022-10-04T03:37:16;101408.47;;;12.50;100.00
11710;BME280;5911;51.036;6.972;2022-10-04T03:39:47;101408.22;;;12.53;100.00
11710;BME280;5911;51.036;6.972;2022-10-04T03:42:18;101414.72;;;12.49;100.00
11710;BME280;5911;51.036;6.972;2022-10-04T03:44:49;101421.72;;;12.50;100.00
11710;BME280;5911;51.036;6.972;2022-10-04T03:47:21;101419.41;;;12.46;100.00
11710;BME280;5911;51.036;6.972;2022-10-04T03:49:52;101410.84;;;12.42;100.00
11710;BME280;5911;51.036;6.972;2022-10-04T03:52:24;101403.66;;;12.44;100.00
11710;BME280;5911;51.036;6.972;2022-10-04T03:54:57;101409.06;;;12.43;100.00
11710;BME280;5911;51.036;6.972;2022-10-04T03:57:27;101397.84;;;12.39;100.00
11710;BME280;5911;51.036;6.972;2022-10-04T03:59:57;101398.13;;;12.36;100.00
11710;BME280;5911;51.036;6.972;2022-10-04T04:02:30;101397.28;;;12.36;100.00
11710;BME280;5911;51.036;6.972;2022-10-04T04:05:07;101388.22;;;12.38;100.00
11710;BME280;5911;51.036;6.972;2022-10-04T04:07:39;101377.06;;;12.35;100.00
11710;BME280;5911;51.036;6.972;2022-10-04T04:10:17;101382.94;;;12.38;100.00
11710;BME280;5911;51.036;6.972;2022-10-04T04:12:52;101380.19;;;12.40;100.00
11710;BME280;5911;51.036;6.972;2022-10-04T04:15:27;101382.94;;;12.38;100.00
11710;BME280;5911;51.036;6.972;2022-10-04T04:17:58;101391.50;;;12.42;100.00
11710;BME280;5911;51.036;6.972;2022-10-04T04:20:31;101387.28;;;12.39;100.00
11710;BME280;5911;51.036;6.972;2022-10-04T04:23:04;101402.91;;;12.42;100.00
11710;BME280;5911;51.036;6.972;2022-10-04T04:25:33;101408.44;;;12.39;100.00
11710;BME280;5911;51.036;6.972;2022-10-04T04:28:12;101398.69;;;12.40;100.00
11710;BME280;5911;51.036;6.972;2022-10-04T04:30:46;101400.16;;;12.32;100.00
11710;BME280;5911;51.036;6.972;2022-10-04T04:33:24;101375.94;;;12.26;100.00
11710;BME280;5911;51.036;6.972;2022-10-04T04:35:54;101391.38;;;12.32;100.00
11710;BME280;5911;51.036;6.972;2022-10-04T04:38:24;101364.41;;;12.16;100.00
11710;BME280;5911;51.036;6.972;2022-10-04T04:40:52;101385.69;;;12.25;100.00
11710;BME280;5911;51.036;6.972;2022-10-04T04:43:24;101399.63;;;12.27;100.00
11710;BME280;5911;51.036;6.972;2022-10-04T04:45:54;101394.75;;;12.34;100.00
11710;BME280;5911;51.036;6.972;2022-10-04T04:48:47;101373.41;;;12.24;100.00
11710;BME280;5911;51.036;6.972;2022-10-04T04:51:19;101384.16;;;12.34;100.00
11710;BME280;5911;51.036;6.972;2022-10-04T04:53:48;101392.09;;;12.34;100.00
11710;BME280;5911;51.036;6.972;2022-10-04T04:56:19;101385.84;;;12.35;100.00
11710;BME280;5911;51.036;6.972;2022-10-04T04:58:50;101388.00;;;12.30;100.00
11710;BME280;5911;51.036;6.972;2022-10-04T05:01:23;101379.09;;;12.31;100.00
11710;BME280;5911;51.036;6.972;2022-10-04T05:04:03;101372.50;;;12.37;100.00
11710;BME280;5911;51.036;6.972;2022-10-04T05:06:32;101369.00;;;12.36;100.00
11710;BME280;5911;51.036;6.972;2022-10-04T05:09:01;101371.03;;;12.32;100.00
11710;BME280;5911;51.036;6.972;2022-10-04T05:11:30;101376.34;;;12.32;100.00
11710;BME280;5911;51.036;6.972;2022-10-04T05:14:01;101367.06;;;12.27;100.00
11710;BME280;5911;51.036;6.972;2022-10-04T05:16:37;101363.56;;;12.26;100.00
11710;BME280;5911;51.036;6.972;2022-10-04T05:19:12;101369.81;;;12.25;100.00
11710;BME280;5911;51.036;6.972;2022-10-04T05:21:42;101362.94;;;12.23;100.00
11710;BME280;5911;51.036;6.972;2022-10-04T05:24:18;101360.56;;;12.20;100.00
11710;BME280;5911;51.036;6.972;2022-10-04T05:26:49;101353.09;;;12.14;100.00
11710;BME280;5911;51.036;6.972;2022-10-04T05:29:20;101359.59;;;12.21;100.00
11710;BME280;5911;51.036;6.972;2022-10-04T05:31:58;101360.31;;;12.23;100.00
11710;BME280;5911;51.036;6.972;2022-10-04T05:34:31;101361.41;;;12.20;100.00
11710;BME280;5911;51.036;6.972;2022-10-04T05:37:17;101357.19;;;12.18;100.00
11710;BME280;5911;51.036;6.972;2022-10-04T05:39:56;101357.06;;;12.19;100.00
11710;BME280;5911;51.036;6.972;2022-10-04T05:42:35;101355.28;;;12.20;100.00
11710;BME280;5911;51.036;6.972;2022-10-04T05:45:12;101357.41;;;12.15;100.00
11710;BME280;5911;51.036;6.972;2022-10-04T05:47:43;101350.31;;;12.04;100.00
11710;BME280;5911;51.036;6.972;2022-10-04T05:50:16;101349.47;;;12.04;100.00
11710;BME280;5911;51.036;6.972;2022-10-04T05:52:46;101346.59;;;12.07;100.00
11710;BME280;5911;51.036;6.972;2022-10-04T05:55:20;101352.75;;;12.18;100.00
11710;BME280;5911;51.036;6.972;2022-10-04T05:58:16;101353.69;;;12.17;100.00
11710;BME280;5911;51.036;6.972;2022-10-04T06:01:22;101354.03;;;12.13;100.00
11710;BME280;5911;51.036;6.972;2022-10-04T06:04:19;101355.28;;;12.20;100.00
11710;BME280;5911;51.036;6.972;2022-10-04T06:06:55;101357.06;;;12.19;100.00
11710;BME280;5911;51.036;6.972;2022-10-04T06:09:47;101355.50;;;12.17;100.00
11710;BME280;5911;51.036;6.972;2022-10-04T06:12:26;101363.09;;;12.21;100.00
11710;BME280;5911;51.036;6.972;2022-10-04T06:15:14;101362.47;;;12.18;100.00
11710;BME280;5911;51.036;6.972;2022-10-04T06:18:00;101370.03;;;12.22;100.00
11710;BME280;5911;51.036;6.972;2022-10-04T06:20:53;101372.56;;;12.24;100.00
11710;BME280;5911;51.036;6.972;2022-10-04T06:23:25;101358.50;;;12.23;100.00
11710;BME280;5911;51.036;6.972;2022-10-04T06:25:57;101330.25;;;12.13;100.00
11710;BME280;5911;51.036;6.972;2022-10-04T06:28:29;101352.88;;;12.28;100.00
11710;BME280;5911;51.036;6.972;2022-10-04T06:31:27;101342.78;;;12.22;100.00
11710;BME280;5911;51.036;6.972;2022-10-04T06:34:24;101326.19;;;12.20;100.00
11710;BME280;5911;51.036;6.972;2022-10-04T06:37:07;101359.38;;;12.35;100.00
11710;BME280;5911;51.036;6.972;2022-10-04T06:40:19;101360.22;;;12.36;100.00
11710;BME280;5911;51.036;6.972;2022-10-04T06:43:08;101330.13;;;12.25;100.00
11710;BME280;5911;51.036;6.972;2022-10-04T06:46:00;101340.13;;;12.22;100.00
11710;BME280;5911;51.036;6.972;2022-10-04T06:48:42;101352.75;;;12.41;100.00
11710;BME280;5911;51.036;6.972;2022-10-04T06:51:23;101340.75;;;12.37;100.00
11710;BME280;5911;51.036;6.972;2022-10-04T06:54:08;101343.25;;;12.38;100.00
11710;BME280;5911;51.036;6.972;2022-10-04T06:57:01;101317.97;;;12.23;100.00
11710;BME280;5911;51.036;6.972;2022-10-04T06:59:58;101351.22;;;12.49;100.00
11710;BME280;5911;51.036;6.972;2022-10-04T07:02:34;101342.91;;;12.43;100.00
11710;BME280;5911;51.036;6.972;2022-10-04T07:05:12;101354.22;;;12.45;100.00
11710;BME280;5911;51.036;6.972;2022-10-04T07:07:45;101336.50;;;12.23;100.00
11710;BME280;5911;51.036;6.972;2022-10-04T07:10:24;101353.97;;;12.48;100.00
11710;BME280;5911;51.036;6.972;2022-10-04T07:13:04;101345.09;;;12.49;100.00
11710;BME280;5911;51.036;6.972;2022-10-04T07:15:43;101352.19;;;12.59;100.00
11710;BME280;5911;51.036;6.972;2022-10-04T07:18:19;101352.06;;;12.61;100.00
11710;BME280;5911;51.036;6.972;2022-10-04T07:20:51;101344.84;;;12.63;100.00
11710;BME280;5911;51.036;6.972;2022-10-04T07:23:29;101349.91;;;12.66;100.00
11710;BME280;5911;51.036;6.972;2022-10-04T07:26:03;101354.34;;;12.77;100.00
11710;BME280;5911;51.036;6.972;2022-10-04T07:28:38;101356.63;;;12.81;100.00
11710;BME280;5911;51.036;6.972;2022-10-04T07:31:27;101365.66;;;12.79;100.00
11710;BME280;5911;51.036;6.972;2022-10-04T07:33:59;101364.69;;;12.80;100.00
11710;BME280;5911;51.036;6.972;2022-10-04T07:36:35;101370.94;;;12.90;100.00
11710;BME280;5911;51.036;6.972;2022-10-04T07:39:10;101367.34;;;12.91;100.00
11710;BME280;5911;51.036;6.972;2022-10-04T07:41:47;101377.19;;;13.00;100.00
11710;BME280;5911;51.036;6.972;2022-10-04T07:44:24;101384.78;;;13.04;100.00
11710;BME280;5911;51.036;6.972;2022-10-04T07:46:59;101382.72;;;13.08;100.00
11710;BME280;5911;51.036;6.972;2022-10-04T07:49:36;101380.91;;;13.09;100.00
11710;BME280;5911;51.036;6.972;2022-10-04T07:52:22;101388.75;;;13.10;100.00
11710;BME280;5911;51.036;6.972;2022-10-04T07:54:58;101395.25;;;13.06;100.00
11710;BME280;5911;51.036;6.972;2022-10-04T07:57:38;101394.88;;;13.11;100.00
11710;BME280;5911;51.036;6.972;2022-10-04T08:00:17;101397.91;;;13.17;100.00
11710;BME280;5911;51.036;6.972;2022-10-04T08:03:09;101387.06;;;13.20;100.00
11710;BME280;5911;51.036;6.972;2022-10-04T08:05:45;101389.47;;;13.23;100.00
11710;BME280;5911;51.036;6.972;2022-10-04T08:08:31;101381.03;;;13.18;100.00
11710;BME280;5911;51.036;6.972;2022-10-04T08:11:17;101381.41;;;13.25;100.00
11710;BME280;5911;51.036;6.972;2022-10-04T08:13:58;101353.59;;;13.08;100.00
11710;BME280;5911;51.036;6.972;2022-10-04T08:16:34;101382.50;;;13.22;100.00
11710;BME280;5911;51.036;6.972;2022-10-04T08:19:22;101338.19;;;12.91;100.00
11710;BME280;5911;51.036;6.972;2022-10-04T08:21:59;101338.69;;;12.96;100.00
11710;BME280;5911;51.036;6.972;2022-10-04T08:24:34;101384.78;;;13.27;100.00
11710;BME280;5911;51.036;6.972;2022-10-04T08:30:04;101372.81;;;13.32;100.00
11710;BME280;5911;51.036;6.972;2022-10-04T08:32:50;101360.09;;;13.26;100.00
11710;BME280;5911;51.036;6.972;2022-10-04T08:38:38;101367.78;;;13.29;100.00
11710;BME280;5911;51.036;6.972;2022-10-04T08:41:39;101367.78;;;13.29;100.00
11710;BME280;5911;51.036;6.972;2022-10-04T08:44:43;101367.78;;;13.29;100.00
11710;BME280;5911;51.036;6.972;2022-10-04T08:47:45;101374.31;;;13.25;100.00
11710;BME280;5911;51.036;6.972;2022-10-04T08:50:57;101361.28;;;13.22;100.00
11710;BME280;5911;51.036;6.972;2022-10-04T08:56:48;101368.63;;;13.30;100.00
11710;BME280;5911;51.036;6.972;2022-10-04T08:59:42;101348.41;;;13.29;100.00
11710;BME280;5911;51.036;6.972;2022-10-04T09:05:36;101365.13;;;13.41;100.00
11710;BME280;5911;51.036;6.972;2022-10-04T09:11:21;101363.75;;;13.46;100.00
11710;BME280;5911;51.036;6.972;2022-10-04T09:14:16;101367.53;;;13.44;100.00
11710;BME280;5911;51.036;6.972;2022-10-04T09:16:57;101354.00;;;13.47;100.00
11710;BME280;5911;51.036;6.972;2022-10-04T09:19:39;101354.94;;;13.57;100.00
11710;BME280;5911;51.036;6.972;2022-10-04T09:22:18;101354.16;;;13.66;100.00
11710;BME280;5911;51.036;6.972;2022-10-04T09:25:15;101355.06;;;13.76;100.00
11710;BME280;5911;51.036;6.972;2022-10-04T09:28:12;101349.78;;;13.76;100.00
11710;BME280;5911;51.036;6.972;2022-10-04T09:30:58;101336.72;;;13.84;100.00
11710;BME280;5911;51.036;6.972;2022-10-04T09:36:38;101350.56;;;14.08;100.00
11710;BME280;5911;51.036;6.972;2022-10-04T09:42:29;101313.06;;;14.64;100.00
11710;BME280;5911;51.036;6.972;2022-10-04T09:45:27;101341.84;;;15.09;100.00
11710;BME280;5911;51.036;6.972;2022-10-04T09:48:22;101330.09;;;15.21;100.00
11710;BME280;5911;51.036;6.972;2022-10-04T09:51:06;101347.47;;;15.44;100.00
11710;BME280;5911;51.036;6.972;2022-10-04T09:53:48;101349.22;;;15.55;100.00
11710;BME280;5911;51.036;6.972;2022-10-04T09:56:46;101352.69;;;15.75;100.00
11710;BME280;5911;51.036;6.972;2022-10-04T09:59:33;101343.72;;;15.95;100.00
11710;BME280;5911;51.036;6.972;2022-10-04T10:02:32;101335.28;;;16.19;100.00
11710;BME280;5911;51.036;6.972;2022-10-04T10:05:21;101333.31;;;16.21;100.00
11710;BME280;5911;51.036;6.972;2022-10-04T10:07:53;101335.97;;;16.31;100.00
11710;BME280;5911;51.036;6.972;2022-10-04T10:10:35;101339.84;;;16.46;100.00
11710;BME280;5911;51.036;6.972;2022-10-04T10:13:38;101329.00;;;16.57;100.00
11710;BME280;5911;51.036;6.972;2022-10-04T10:16:24;101327.63;;;16.80;100.00
11710;BME280;5911;51.036;6.972;2022-10-04T10:19:09;101342.75;;;16.90;98.10
11710;BME280;5911;51.036;6.972;2022-10-04T10:21:56;101341.50;;;17.11;98.82
11710;BME280;5911;51.036;6.972;2022-10-04T10:24:57;101316.16;;;17.25;95.95
11710;BME280;5911;51.036;6.972;2022-10-04T10:27:42;101325.78;;;17.53;96.63
11710;BME280;5911;51.036;6.972;2022-10-04T10:30:21;101323.66;;;17.75;95.42
11710;BME280;5911;51.036;6.972;2022-10-04T10:33:07;101321.97;;;17.74;92.82
11710;BME280;5911;51.036;6.972;2022-10-04T10:35:49;101326.06;;;17.50;93.86
11710;BME280;5911;51.036;6.972;2022-10-04T10:38:30;101321.56;;;17.33;94.66
11710;BME280;5911;51.036;6.972;2022-10-04T10:41:24;101326.47;;;17.73;95.46
11710;BME280;5911;51.036;6.972;2022-10-04T10:44:11;101314.88;;;17.82;92.12
11710;BME280;5911;51.036;6.972;2022-10-04T10:47:01;101320.34;;;18.24;89.91
11710;BME280;5911;51.036;6.972;2022-10-04T10:49:42;101318.28;;;18.44;84.04
11710;BME280;5911;51.036;6.972;2022-10-04T10:52:41;101322.63;;;18.71;82.75
11710;BME280;5911;51.036;6.972;2022-10-04T10:55:28;101304.81;;;18.88;83.43
11710;BME280;5911;51.036;6.972;2022-10-04T10:58:21;101331.97;;;19.25;82.69
11710;BME280;5911;51.036;6.972;2022-10-04T11:01:08;101330.00;;;19.44;82.42
11710;BME280;5911;51.036;6.972;2022-10-04T11:04:02;101336.09;;;19.62;79.44
11710;BME280;5911;51.036;6.972;2022-10-04T11:07:02;101318.16;;;19.87;78.47
11710;BME280;5911;51.036;6.972;2022-10-04T11:09:56;101320.84;;;19.95;72.07
11710;BME280;5911;51.036;6.972;2022-10-04T11:13:08;101312.78;;;20.19;74.87
11710;BME280;5911;51.036;6.972;2022-10-04T11:16:05;101316.16;;;20.13;68.15
11710;BME280;5911;51.036;6.972;2022-10-04T11:22:07;101303.84;;;20.51;65.95
11710;BME280;5911;51.036;6.972;2022-10-04T11:24:54;101281.84;;;20.64;66.85
11710;BME280;5911;51.036;6.972;2022-10-04T11:27:37;101296.50;;;20.84;65.45
11710;BME280;5911;51.036;6.972;2022-10-04T11:30:18;101299.69;;;21.11;67.08
11710;BME280;5911;51.036;6.972;2022-10-04T11:33:22;101296.84;;;21.12;63.61
11710;BME280;5911;51.036;6.972;2022-10-04T11:36:21;101277.69;;;21.46;65.41
11710;BME280;5911;51.036;6.972;2022-10-04T11:39:03;101279.47;;;21.54;62.93
11710;BME280;5911;51.036;6.972;2022-10-04T11:41:46;101282.84;;;21.70;61.13
11710;BME280;5911;51.036;6.972;2022-10-04T11:44:46;101278.28;;;21.33;58.29
11710;BME280;5911;51.036;6.972;2022-10-04T11:47:38;101272.34;;;20.84;63.86
11710;BME280;5911;51.036;6.972;2022-10-04T11:50:31;101265.25;;;20.05;70.00
11710;BME280;5911;51.036;6.972;2022-10-04T11:53:17;101269.66;;;19.49;71.90
11710;BME280;5911;51.036;6.972;2022-10-04T11:56:15;101264.41;;;19.07;73.75
11710;BME280;5911;51.036;6.972;2022-10-04T11:58:57;101244.31;;;18.79;78.58
11710;BME280;5911;51.036;6.972;2022-10-04T12:01:51;101250.44;;;18.63;80.23
11710;BME280;5911;51.036;6.972;2022-10-04T12:04:48;101246.84;;;18.54;78.96
11710;BME280;5911;51.036;6.972;2022-10-04T12:07:32;101222.19;;;18.26;81.29
11710;BME280;5911;51.036;6.972;2022-10-04T12:10:18;101225.78;;;18.09;82.50
11710;BME280;5911;51.036;6.972;2022-10-04T12:16:00;101250.28;;;18.05;85.92
11710;BME280;5911;51.036;6.972;2022-10-04T12:18:58;101245.28;;;18.02;81.90
11710;BME280;5911;51.036;6.972;2022-10-04T12:21:40;101258.94;;;17.99;81.54
11710;BME280;5911;51.036;6.972;2022-10-04T12:24:40;101255.75;;;17.95;83.34
11710;BME280;5911;51.036;6.972;2022-10-04T12:27:36;101249.34;;;17.88;79.18
11710;BME280;5911;51.036;6.972;2022-10-04T12:30:20;101236.38;;;17.93;82.95
11710;BME280;5911;51.036;6.972;2022-10-04T12:32:54;101203.56;;;17.75;80.54
11710;BME280;5911;51.036;6.972;2022-10-04T12:35:38;101236.69;;;17.90;79.47
11710;BME280;5911;51.036;6.972;2022-10-04T12:38:21;101231.34;;;17.90;78.68
11710;BME280;5911;51.036;6.972;2022-10-04T12:40:59;101228.41;;;18.01;82.29
11710;BME280;5911;51.036;6.972;2022-10-04T12:43:35;101217.75;;;18.01;79.01
11710;BME280;5911;51.036;6.972;2022-10-04T12:46:19;101202.34;;;17.95;76.13
11710;BME280;5911;51.036;6.972;2022-10-04T12:49:01;101209.38;;;18.04;78.89
11710;BME280;5911;51.036;6.972;2022-10-04T12:51:38;101214.06;;;18.02;77.73
11710;BME280;5911;51.036;6.972;2022-10-04T12:54:19;101199.38;;;17.98;78.41
11710;BME280;5911;51.036;6.972;2022-10-04T12:57:02;101200.66;;;17.94;79.84
11710;BME280;5911;51.036;6.972;2022-10-04T12:59:41;101198.63;;;17.88;79.52
11710;BME280;5911;51.036;6.972;2022-10-04T13:02:27;101201.28;;;17.88;81.18
11710;BME280;5911;51.036;6.972;2022-10-04T13:05:00;101189.47;;;17.90;82.36
11710;BME280;5911;51.036;6.972;2022-10-04T13:07:40;101190.31;;;17.91;82.56
11710;BME280;5911;51.036;6.972;2022-10-04T13:10:28;101185.13;;;17.89;81.20
11710;BME280;5911;51.036;6.972;2022-10-04T13:13:17;101177.59;;;17.85;83.71
11710;BME280;5911;51.036;6.972;2022-10-04T13:15:52;101163.66;;;17.73;87.49
11710;BME280;5911;51.036;6.972;2022-10-04T13:18:52;101175.56;;;17.79;88.87
11710;BME280;5911;51.036;6.972;2022-10-04T13:21:46;101172.22;;;17.77;86.49
11710;BME280;5911;51.036;6.972;2022-10-04T13:24:24;101155.16;;;17.70;86.08
11710;BME280;5911;51.036;6.972;2022-10-04T13:26:58;101172.75;;;17.80;87.51
11710;BME280;5911;51.036;6.972;2022-10-04T13:29:34;101182.25;;;17.83;86.30
11710;BME280;5911;51.036;6.972;2022-10-04T13:32:09;101174.56;;;17.80;90.35
11710;BME280;5911;51.036;6.972;2022-10-04T13:34:45;101166.72;;;17.78;90.57
11710;BME280;5911;51.036;6.972;2022-10-04T13:37:30;101165.19;;;17.76;85.60
11710;BME280;5911;51.036;6.972;2022-10-04T13:40:24;101156.84;;;17.71;91.68
11710;BME280;5911;51.036;6.972;2022-10-04T13:43:09;101151.81;;;17.68;93.67
11710;BME280;5911;51.036;6.972;2022-10-04T13:45:54;101155.16;;;17.70;93.38
11710;BME280;5911;51.036;6.972;2022-10-04T13:48:37;101143.84;;;17.76;89.87
11710;BME280;5911;51.036;6.972;2022-10-04T13:54:17;101145.88;;;17.82;88.01
11710;BME280;5911;51.036;6.972;2022-10-04T13:57:16;101139.56;;;17.83;90.67
11710;BME280;5911;51.036;6.972;2022-10-04T13:59:50;101142.91;;;17.85;91.18
11710;BME280;5911;51.036;6.972;2022-10-04T14:02:59;101133.56;;;17.89;89.58
11710;BME280;5911;51.036;6.972;2022-10-04T14:09:11;101125.00;;;17.77;90.68
11710;BME280;5911;51.036;6.972;2022-10-04T14:12:02;101118.38;;;17.81;91.55
11710;BME280;5911;51.036;6.972;2022-10-04T14:14:59;101116.53;;;17.82;93.76
11710;BME280;5911;51.036;6.972;2022-10-04T14:20:55;101105.38;;;17.86;91.57
11710;BME280;5911;51.036;6.972;2022-10-04T14:27:00;101095.94;;;18.00;90.18
11710;BME280;5911;51.036;6.972;2022-10-04T14:29:45;101088.91;;;17.99;90.55
11710;BME280;5911;51.036;6.972;2022-10-04T14:32:38;101098.44;;;18.10;92.59
11710;BME280;5911;51.036;6.972;2022-10-04T14:35:17;101106.66;;;18.16;91.27
11710;BME280;5911;51.036;6.972;2022-10-04T14:38:05;101111.50;;;18.21;91.05
11710;BME280;5911;51.036;6.972;2022-10-04T14:40:44;101108.97;;;18.19;89.89
11710;BME280;5911;51.036;6.972;2022-10-04T14:44:04;101108.97;;;18.19;91.85
11710;BME280;5911;51.036;6.972;2022-10-04T14:46:45;101094.00;;;18.26;92.42
11710;BME280;5911;51.036;6.972;2022-10-04T14:49:26;101071.94;;;18.16;90.08
11710;BME280;5911;51.036;6.972;2022-10-04T14:52:13;101085.47;;;18.15;92.89